Time;durP1;ratioP1;P1;durP2;ratioP2;P2;SDS_P1;SDS_P2;PMS_P1;PMS_P2;Temp;Humidity;BMP_temperature;BMP_pressure;BME280_temperature;BME280_humidity;BME280_pressure;Samples;Min_cycle;Max_cycle;Signal;HPM_P1;HPM_P2
2021/09/08 00:01:54;;;;;;;9.52;7.63;;;20.10;96.60;;;;;;5092193;28;20036;-62
2021/09/08 00:04:19;;;;;;;9.00;7.50;;;20.10;96.70;;;;;;5091725;28;20024;-61
2021/09/08 00:06:45;;;;;;;11.57;8.43;;;20.00;96.90;;;;;;5091968;28;20381;-62
2021/09/08 00:09:11;;;;;;;10.02;7.43;;;19.90;97.00;;;;;;5090124;28;20458;-61
2021/09/08 00:11:37;;;;;;;8.30;6.97;;;20.00;97.00;;;;;;5092399;28;20032;-61
2021/09/08 00:14:02;;;;;;;11.23;7.63;;;19.90;97.00;;;;;;5091455;28;20093;-72
2021/09/08 00:16:28;;;;;;;10.15;7.95;;;20.00;97.00;;;;;;5092077;28;20030;-61
2021/09/08 00:18:54;;;;;;;8.30;7.13;;;19.90;97.10;;;;;;5091794;28;20040;-60
2021/09/08 00:21:19;;;;;;;11.52;7.15;;;20.00;97.20;;;;;;5089969;28;20376;-62
2021/09/08 00:23:45;;;;;;;9.70;7.75;;;19.90;97.20;;;;;;5092075;28;20036;-62
2021/09/08 00:26:11;;;;;;;13.85;7.90;;;19.90;97.10;;;;;;5091431;28;20054;-61
2021/09/08 00:28:36;;;;;;;13.25;7.70;;;19.80;97.30;;;;;;5090601;28;20021;-61
2021/09/08 00:31:02;;;;;;;11.88;7.00;;;19.70;97.30;;;;;;5091690;28;20408;-62
2021/09/08 00:33:28;;;;;;;10.43;7.22;;;19.80;97.30;;;;;;5091123;28;20028;-62
2021/09/08 00:35:53;;;;;;;9.52;7.88;;;19.70;97.40;;;;;;5091464;28;20385;-61
2021/09/08 00:38:19;;;;;;;8.43;7.38;;;19.70;97.50;;;;;;5091043;28;20500;-62
2021/09/08 00:40:45;;;;;;;8.65;7.72;;;19.70;97.60;;;;;;5091683;28;20137;-62
2021/09/08 00:43:10;;;;;;;15.93;7.88;;;19.60;97.60;;;;;;5090833;28;20389;-61
2021/09/08 00:45:36;;;;;;;9.48;6.93;;;19.60;97.60;;;;;;5091313;28;20457;-61
2021/09/08 00:48:01;;;;;;;9.25;7.82;;;19.60;97.70;;;;;;5090260;28;20036;-61
2021/09/08 00:50:28;;;;;;;12.10;7.75;;;19.60;97.90;;;;;;5090902;28;20073;-61
2021/09/08 00:52:57;;;;;;;9.00;7.78;;;19.60;98.10;;;;;;5091472;28;20035;-60
2021/09/08 00:55:25;;;;;;;11.18;8.30;;;19.60;98.00;;;;;;5090518;28;20016;-61
2021/09/08 00:57:51;;;;;;;10.18;8.60;;;19.60;98.10;;;;;;5091366;28;20024;-62
2021/09/08 01:00:18;;;;;;;12.85;8.20;;;19.60;97.90;;;;;;5090674;28;20566;-61
2021/09/08 01:02:45;;;;;;;11.77;8.25;;;19.50;97.90;;;;;;5091006;28;20477;-62
2021/09/08 01:05:11;;;;;;;11.68;8.18;;;19.40;98.20;;;;;;5090540;28;20028;-61
2021/09/08 01:07:37;;;;;;;11.40;8.48;;;19.40;98.20;;;;;;5091513;28;20111;-61
2021/09/08 01:10:04;;;;;;;14.48;8.52;;;19.30;98.50;;;;;;5091361;28;20024;-61
2021/09/08 01:12:30;;;;;;;10.75;7.90;;;19.20;98.60;;;;;;5090385;28;20028;-61
2021/09/08 01:14:55;;;;;;;9.60;7.90;;;19.10;98.70;;;;;;5091588;28;20032;-62
2021/09/08 01:17:21;;;;;;;11.45;8.02;;;19.20;98.90;;;;;;5090673;28;20024;-62
2021/09/08 01:19:47;;;;;;;10.77;8.25;;;19.00;98.90;;;;;;5091233;28;20456;-62
2021/09/08 01:22:13;;;;;;;12.02;8.15;;;19.10;98.90;;;;;;5088076;28;20039;-62
2021/09/08 01:24:43;;;;;;;11.40;7.63;;;19.10;98.90;;;;;;5085586;28;20041;-62
2021/09/08 01:27:09;;;;;;;10.77;8.10;;;19.10;99.00;;;;;;5070729;28;20053;-63
2021/09/08 01:29:35;;;;;;;11.75;9.38;;;19.10;99.00;;;;;;5071081;28;20079;-62
2021/09/08 01:32:00;;;;;;;11.38;8.27;;;19.10;99.10;;;;;;5070754;28;20028;-61
2021/09/08 01:34:27;;;;;;;12.15;7.63;;;19.00;99.20;;;;;;5070245;28;20028;-61
2021/09/08 01:36:53;;;;;;;12.98;8.30;;;19.00;99.30;;;;;;5071542;28;20028;-61
2021/09/08 01:39:19;;;;;;;11.73;7.45;;;19.00;99.30;;;;;;5070999;28;20028;-61
2021/09/08 01:41:49;;;;;;;10.90;8.27;;;19.10;99.20;;;;;;5069408;28;20106;-61
2021/09/08 01:44:33;;;;;;;10.03;8.20;;;19.00;99.30;;;;;;5068944;28;20426;-61
2021/09/08 01:46:58;;;;;;;11.13;8.80;;;19.00;99.40;;;;;;5070774;28;20029;-61
2021/09/08 01:49:24;;;;;;;11.93;7.70;;;19.10;99.30;;;;;;5069806;28;20467;-61
2021/09/08 01:51:50;;;;;;;9.68;7.93;;;19.10;99.30;;;;;;5070627;28;20070;-61
2021/09/08 01:54:15;;;;;;;10.52;8.00;;;19.00;99.40;;;;;;5069725;28;20067;-61
2021/09/08 01:56:41;;;;;;;15.70;8.65;;;19.00;99.40;;;;;;5072269;28;20534;-61
2021/09/08 01:59:07;;;;;;;14.07;9.25;;;19.00;99.40;;;;;;5074461;28;20098;-61
2021/09/08 02:01:33;;;;;;;11.27;8.77;;;19.00;99.40;;;;;;5074003;28;20044;-61
2021/09/08 02:03:59;;;;;;;10.73;8.38;;;19.00;99.50;;;;;;5074124;28;20564;-62
2021/09/08 02:06:27;;;;;;;11.32;7.88;;;19.00;99.30;;;;;;5073469;28;20359;-61
2021/09/08 02:08:54;;;;;;;9.65;8.18;;;19.00;99.30;;;;;;5072954;28;20357;-62
2021/09/08 02:11:20;;;;;;;18.35;9.48;;;19.00;99.50;;;;;;5073573;28;20372;-62
2021/09/08 02:13:47;;;;;;;12.52;8.77;;;19.00;99.50;;;;;;5074015;28;20056;-62
2021/09/08 02:16:15;;;;;;;11.43;8.82;;;18.90;99.40;;;;;;5072291;28;20031;-62
2021/09/08 02:18:42;;;;;;;10.32;8.43;;;18.80;99.60;;;;;;5074283;28;20123;-62
2021/09/08 02:21:08;;;;;;;12.70;7.90;;;18.80;99.70;;;;;;5072343;28;20132;-62
2021/09/08 02:23:34;;;;;;;9.82;8.48;;;18.70;99.90;;;;;;5074101;28;20179;-62
2021/09/08 02:25:59;;;;;;;10.48;7.63;;;18.70;99.80;;;;;;5074042;28;20081;-61
2021/09/08 02:28:25;;;;;;;10.85;8.20;;;18.70;99.90;;;;;;5071993;28;20081;-62
2021/09/08 02:30:51;;;;;;;10.48;8.35;;;18.70;99.80;;;;;;5072379;28;20081;-61
2021/09/08 02:33:17;;;;;;;12.32;8.27;;;18.70;99.90;;;;;;5072956;28;20146;-61
2021/09/08 02:35:43;;;;;;;11.38;8.98;;;18.70;99.90;;;;;;5073776;28;20409;-61
2021/09/08 02:38:09;;;;;;;13.77;9.07;;;18.60;99.90;;;;;;5073679;28;20028;-61
2021/09/08 02:40:35;;;;;;;12.93;8.43;;;18.50;99.90;;;;;;5073130;28;20039;-61
2021/09/08 02:43:00;;;;;;;11.50;8.93;;;18.50;99.90;;;;;;5072055;28;20028;-61
2021/09/08 02:45:26;;;;;;;16.17;8.73;;;18.50;99.90;;;;;;5073044;28;20346;-61
2021/09/08 02:47:51;;;;;;;11.38;9.65;;;18.50;99.90;;;;;;5072402;28;20083;-61
2021/09/08 02:50:17;;;;;;;14.02;8.40;;;18.50;99.90;;;;;;5072818;28;20032;-62
2021/09/08 02:52:43;;;;;;;10.98;8.35;;;18.40;99.90;;;;;;5073437;28;20028;-61
2021/09/08 02:55:09;;;;;;;11.65;8.48;;;18.40;99.90;;;;;;5071771;28;20032;-61
2021/09/08 02:57:34;;;;;;;13.77;9.23;;;18.40;99.90;;;;;;5071564;28;20021;-61
2021/09/08 03:00:00;;;;;;;10.23;8.43;;;18.40;99.90;;;;;;5073233;28;20036;-61
2021/09/08 03:02:26;;;;;;;13.13;8.48;;;18.30;99.90;;;;;;5072360;28;20080;-61
2021/09/08 03:04:51;;;;;;;13.88;9.00;;;18.40;99.90;;;;;;5073021;28;20103;-61
2021/09/08 03:07:17;;;;;;;10.95;8.35;;;18.40;99.90;;;;;;5072282;28;20028;-61
2021/09/08 03:09:42;;;;;;;10.45;8.45;;;18.30;99.90;;;;;;5071847;28;20029;-62
2021/09/08 03:12:08;;;;;;;10.55;8.70;;;18.40;99.90;;;;;;5073049;28;20035;-61
2021/09/08 03:14:34;;;;;;;11.73;9.13;;;18.40;99.90;;;;;;5071154;28;20025;-61
2021/09/08 03:16:59;;;;;;;10.98;8.40;;;18.30;99.90;;;;;;5072773;28;20031;-61
2021/09/08 03:19:25;;;;;;;10.48;8.38;;;18.20;99.90;;;;;;5072588;28;20397;-61
2021/09/08 03:21:50;;;;;;;12.68;9.23;;;18.30;99.90;;;;;;5072971;28;20115;-61
2021/09/08 03:24:16;;;;;;;12.88;8.88;;;18.20;99.90;;;;;;5070598;28;20409;-62
2021/09/08 03:26:42;;;;;;;14.55;8.95;;;18.30;99.90;;;;;;5072873;28;20020;-62
2021/09/08 03:29:07;;;;;;;14.98;8.85;;;18.30;99.90;;;;;;5072782;28;20029;-61
2021/09/08 03:31:33;;;;;;;13.52;9.85;;;18.20;99.90;;;;;;5070626;28;20064;-61
2021/09/08 03:33:58;;;;;;;11.05;9.02;;;18.20;99.90;;;;;;5071405;28;20477;-61
2021/09/08 03:36:24;;;;;;;11.68;8.70;;;18.20;99.90;;;;;;5072012;28;20450;-62
2021/09/08 03:38:49;;;;;;;14.02;9.38;;;18.10;99.90;;;;;;5072839;28;20040;-61
2021/09/08 03:41:15;;;;;;;12.43;8.60;;;18.10;99.90;;;;;;5071805;28;20028;-62
2021/09/08 03:43:41;;;;;;;13.82;8.70;;;18.00;99.90;;;;;;5072403;28;20323;-62
2021/09/08 03:46:07;;;;;;;13.07;9.20;;;18.00;99.90;;;;;;5072357;28;20029;-62
2021/09/08 03:48:33;;;;;;;10.88;8.27;;;18.10;99.90;;;;;;5071861;28;20028;-62
2021/09/08 03:50:59;;;;;;;13.65;9.27;;;18.10;99.90;;;;;;5072352;28;20024;-62
2021/09/08 03:53:25;;;;;;;16.42;9.35;;;18.10;99.90;;;;;;5070272;28;20082;-62
2021/09/08 03:55:51;;;;;;;12.43;8.50;;;18.10;99.90;;;;;;5070745;28;20098;-62
2021/09/08 03:58:16;;;;;;;12.68;9.70;;;18.10;99.90;;;;;;5071766;28;20116;-63
2021/09/08 04:00:42;;;;;;;13.23;9.30;;;18.10;99.90;;;;;;5071912;28;20064;-63
2021/09/08 04:03:10;;;;;;;10.45;9.23;;;18.00;99.90;;;;;;5071718;28;20085;-62
2021/09/08 04:05:36;;;;;;;12.02;8.77;;;17.90;99.90;;;;;;5071476;28;20036;-62
2021/09/08 04:08:01;;;;;;;14.98;8.93;;;17.90;99.90;;;;;;5072256;28;20035;-62
2021/09/08 04:10:27;;;;;;;12.35;9.23;;;17.90;99.90;;;;;;5071269;28;20024;-63
2021/09/08 04:12:52;;;;;;;14.10;9.70;;;17.90;99.90;;;;;;5071725;28;20095;-62
2021/09/08 04:15:18;;;;;;;15.68;9.88;;;17.90;99.90;;;;;;5071176;28;20108;-65
2021/09/08 04:17:44;;;;;;;15.75;9.93;;;17.80;99.90;;;;;;5071304;28;20331;-62
2021/09/08 04:20:10;;;;;;;14.70;9.55;;;17.90;99.90;;;;;;5069792;28;20024;-62
2021/09/08 04:22:36;;;;;;;16.30;10.00;;;17.90;99.90;;;;;;5070759;28;20397;-62
2021/09/08 04:25:03;;;;;;;22.95;8.77;;;17.90;99.90;;;;;;5071637;28;20050;-62
2021/09/08 04:27:29;;;;;;;12.52;9.23;;;17.90;99.90;;;;;;5069512;28;20082;-63
2021/09/08 04:29:54;;;;;;;14.55;9.85;;;17.80;99.90;;;;;;5071487;28;20020;-61
2021/09/08 04:32:20;;;;;;;15.43;9.63;;;17.80;99.90;;;;;;5071061;28;20033;-62
2021/09/08 04:34:46;;;;;;;14.25;9.73;;;17.80;99.90;;;;;;5070151;28;20534;-62
2021/09/08 04:37:11;;;;;;;12.00;8.70;;;17.90;99.90;;;;;;5071541;28;20029;-62
2021/09/08 04:39:37;;;;;;;13.90;9.70;;;17.90;99.90;;;;;;5070991;28;20242;-62
2021/09/08 04:42:03;;;;;;;13.68;8.75;;;17.90;99.90;;;;;;5070842;28;20107;-62
2021/09/08 04:44:28;;;;;;;12.82;10.50;;;17.90;99.90;;;;;;5070511;28;20060;-61
2021/09/08 04:46:54;;;;;;;16.05;9.95;;;17.90;99.90;;;;;;5071244;28;20035;-61
2021/09/08 04:49:19;;;;;;;13.70;10.00;;;17.90;99.90;;;;;;5070415;28;20025;-62
2021/09/08 04:51:45;;;;;;;11.35;9.02;;;17.90;99.90;;;;;;5071035;28;20373;-62
2021/09/08 04:54:12;;;;;;;15.02;10.85;;;17.90;99.90;;;;;;5071005;28;20381;-61
2021/09/08 04:56:38;;;;;;;16.00;9.18;;;17.80;99.90;;;;;;5069267;28;20460;-62
2021/09/08 04:59:03;;;;;;;12.85;9.77;;;17.80;99.90;;;;;;5071518;28;20028;-62
2021/09/08 05:01:29;;;;;;;15.38;10.40;;;17.90;99.90;;;;;;5070241;28;20118;-61
2021/09/08 05:03:55;;;;;;;19.67;9.90;;;17.90;99.90;;;;;;5071017;28;20091;-62
2021/09/08 05:06:20;;;;;;;14.88;9.90;;;17.90;99.90;;;;;;5070398;28;20079;-62
2021/09/08 05:08:46;;;;;;;15.30;10.35;;;17.90;99.90;;;;;;5070931;28;20016;-62
2021/09/08 05:11:12;;;;;;;17.80;9.73;;;17.90;99.90;;;;;;5070725;28;20112;-62
2021/09/08 05:13:38;;;;;;;14.30;9.98;;;17.80;99.90;;;;;;5070164;28;20074;-62
2021/09/08 05:16:06;;;;;;;13.25;10.05;;;17.90;99.90;;;;;;5070731;28;20444;-62
2021/09/08 05:18:32;;;;;;;17.98;9.75;;;17.90;99.90;;;;;;5070217;28;20350;-62
2021/09/08 05:20:57;;;;;;;12.02;9.93;;;17.90;99.90;;;;;;5070541;28;20048;-62
2021/09/08 05:23:23;;;;;;;15.85;10.18;;;17.90;99.90;;;;;;5070090;28;20104;-63
2021/09/08 05:25:48;;;;;;;19.23;10.25;;;17.90;99.90;;;;;;5069007;28;20048;-63
2021/09/08 05:28:14;;;;;;;18.55;10.65;;;17.90;99.90;;;;;;5070431;28;20028;-61
2021/09/08 05:30:40;;;;;;;14.05;10.38;;;18.00;99.90;;;;;;5069986;28;20028;-62
2021/09/08 05:33:06;;;;;;;17.05;10.93;;;18.00;99.90;;;;;;5073246;28;20466;-62
2021/09/08 05:35:31;;;;;;;14.40;10.27;;;17.90;99.90;;;;;;5072415;28;20035;-61
2021/09/08 05:37:57;;;;;;;14.77;10.73;;;18.00;99.90;;;;;;5074388;28;20032;-62
2021/09/08 05:40:22;;;;;;;13.90;9.63;;;18.00;99.90;;;;;;5073098;28;20036;-64
2021/09/08 05:42:48;;;;;;;15.25;10.07;;;17.90;99.90;;;;;;5072010;28;20445;-62
2021/09/08 05:45:14;;;;;;;12.20;8.90;;;18.00;99.90;;;;;;5074268;28;20033;-62
2021/09/08 05:47:39;;;;;;;25.10;10.52;;;18.00;99.90;;;;;;5073604;28;20050;-63
2021/09/08 05:50:06;;;;;;;16.58;10.00;;;18.10;99.90;;;;;;5073506;28;20059;-62
2021/09/08 05:52:31;;;;;;;11.38;9.35;;;18.20;99.90;;;;;;5072026;28;20124;-62
2021/09/08 05:54:57;;;;;;;12.85;9.40;;;18.20;99.90;;;;;;5073767;28;20458;-62
2021/09/08 05:57:22;;;;;;;26.92;10.50;;;18.40;99.90;;;;;;5073430;28;20465;-68
2021/09/08 05:59:48;;;;;;;14.85;10.25;;;18.40;99.90;;;;;;5072607;28;20028;-62
2021/09/08 06:02:14;;;;;;;13.30;10.07;;;18.30;99.90;;;;;;5074088;28;20128;-62
2021/09/08 06:04:39;;;;;;;19.45;9.88;;;18.50;99.90;;;;;;5074040;28;20025;-62
2021/09/08 06:07:05;;;;;;;14.70;9.60;;;18.60;99.90;;;;;;5072457;28;20033;-62
2021/09/08 06:09:30;;;;;;;16.60;9.80;;;18.70;99.90;;;;;;5073286;28;20522;-63
2021/09/08 06:11:57;;;;;;;15.32;9.38;;;18.80;99.90;;;;;;5073519;28;20032;-61
2021/09/08 06:14:24;;;;;;;13.35;8.82;;;18.70;99.90;;;;;;5072048;28;20115;-68
2021/09/08 06:16:50;;;;;;;14.13;9.93;;;18.90;99.90;;;;;;5071946;28;20146;-61
2021/09/08 06:19:15;;;;;;;11.93;8.90;;;19.00;99.90;;;;;;5073567;28;20074;-62
2021/09/08 06:21:41;;;;;;;12.13;9.68;;;19.10;99.90;;;;;;5071698;28;20037;-62
2021/09/08 06:24:07;;;;;;;14.10;9.93;;;19.30;99.90;;;;;;5071451;28;20120;-63
2021/09/08 06:26:32;;;;;;;11.13;8.55;;;19.40;99.70;;;;;;5071472;28;20059;-63
2021/09/08 06:28:58;;;;;;;15.15;9.52;;;19.50;99.30;;;;;;5072898;28;20025;-62
2021/09/08 06:31:24;;;;;;;14.52;9.70;;;19.60;99.20;;;;;;5073066;28;20115;-74
2021/09/08 06:33:50;;;;;;;10.90;8.73;;;19.70;99.00;;;;;;5071320;28;20070;-62
2021/09/08 06:36:17;;;;;;;13.23;8.93;;;19.90;98.60;;;;;;5071759;28;20063;-62
2021/09/08 06:38:42;;;;;;;12.35;8.95;;;20.00;98.40;;;;;;5072359;28;20104;-62
2021/09/08 06:41:08;;;;;;;16.00;9.02;;;20.00;98.20;;;;;;5070734;28;20425;-63
2021/09/08 06:43:34;;;;;;;12.77;9.20;;;20.20;98.20;;;;;;5070319;28;20098;-61
2021/09/08 06:45:59;;;;;;;12.18;9.02;;;20.40;97.90;;;;;;5072929;28;20040;-63
2021/09/08 06:48:25;;;;;;;12.32;8.35;;;20.40;97.70;;;;;;5070815;28;20067;-73
2021/09/08 06:50:51;;;;;;;12.02;9.18;;;20.60;97.60;;;;;;5072791;28;20511;-62
2021/09/08 06:53:16;;;;;;;12.85;8.93;;;20.80;97.30;;;;;;5072649;28;20494;-63
2021/09/08 06:55:42;;;;;;;10.95;8.02;;;20.90;97.00;;;;;;5072672;28;20461;-63
2021/09/08 06:58:07;;;;;;;13.23;9.45;;;21.10;96.70;;;;;;5073278;28;20024;-63
2021/09/08 07:00:33;;;;;;;12.10;8.45;;;21.20;96.60;;;;;;5072183;28;20040;-62
2021/09/08 07:03:00;;;;;;;14.02;9.18;;;21.50;96.00;;;;;;5073043;28;20419;-62
2021/09/08 07:05:26;;;;;;;12.27;8.30;;;21.60;95.80;;;;;;5072088;28;20583;-63
2021/09/08 07:07:52;;;;;;;11.55;8.77;;;21.70;95.40;;;;;;5072323;28;20131;-62
2021/09/08 07:10:18;;;;;;;17.30;8.48;;;21.90;95.40;;;;;;5071317;28;20028;-61
2021/09/08 07:12:44;;;;;;;6.50;4.68;;;22.10;95.00;;;;;;5070337;28;20035;-49
2021/09/08 07:15:11;;;;;;;10.73;5.90;;;22.70;98.00;;;;;;5080343;28;20024;-50
2021/09/08 07:17:36;;;;;;;7.45;6.00;;;23.20;97.00;;;;;;5090170;28;20457;-50
2021/09/08 07:20:03;;;;;;;9.40;6.82;;;23.50;96.10;;;;;;5090649;28;20111;-49
2021/09/08 07:22:28;;;;;;;10.35;6.53;;;23.80;95.60;;;;;;5090937;28;20028;-50
2021/09/08 07:24:54;;;;;;;11.15;6.82;;;24.00;94.70;;;;;;5091605;28;20113;-48
2021/09/08 07:27:19;;;;;;;9.05;7.07;;;24.20;94.20;;;;;;5091529;28;20087;-49
2021/09/08 07:29:45;;;;;;;17.13;7.03;;;24.30;93.70;;;;;;5091225;28;20032;-50
2021/09/08 07:32:11;;;;;;;8.88;7.20;;;24.40;93.40;;;;;;5091632;28;20024;-49
2021/09/08 07:34:37;;;;;;;10.48;7.28;;;24.50;93.00;;;;;;5090952;28;20489;-51
2021/09/08 07:37:04;;;;;;;9.80;7.50;;;24.50;92.80;;;;;;5091737;28;20103;-50
2021/09/08 07:39:29;;;;;;;8.10;6.45;;;24.70;92.60;;;;;;5090837;28;20031;-51
2021/09/08 07:41:55;;;;;;;8.25;6.55;;;24.90;92.40;;;;;;5091536;28;20040;-49
2021/09/08 07:44:21;;;;;;;7.65;6.28;;;24.90;92.10;;;;;;5090683;28;20032;-49
2021/09/08 07:46:47;;;;;;;9.93;7.45;;;24.90;91.90;;;;;;5091240;28;20028;-49
2021/09/08 07:49:13;;;;;;;136.25;58.22;;;25.10;91.50;;;;;;5087850;28;20020;-50
2021/09/08 07:51:38;;;;;;;18.10;9.98;;;25.00;91.60;;;;;;5089408;28;20396;-49
2021/09/08 07:54:04;;;;;;;16.67;9.43;;;25.00;91.50;;;;;;5088710;28;20024;-51
2021/09/08 07:56:29;;;;;;;14.25;8.18;;;25.10;91.50;;;;;;5090519;28;20047;-55
2021/09/08 07:58:55;;;;;;;12.68;7.70;;;25.20;91.10;;;;;;5090819;28;20077;-50
2021/09/08 08:01:21;;;;;;;12.63;9.13;;;25.20;90.80;;;;;;5090380;28;20135;-50
2021/09/08 08:03:46;;;;;;;16.50;8.50;;;25.30;91.10;;;;;;5091001;28;20032;-49
2021/09/08 08:06:12;;;;;;;16.63;9.23;;;25.60;91.00;;;;;;5090190;28;20062;-49
2021/09/08 08:08:38;;;;;;;17.98;8.65;;;25.60;90.30;;;;;;5089605;28;20222;-55
2021/09/08 08:11:03;;;;;;;16.85;8.73;;;25.70;90.40;;;;;;5091399;28;20024;-50
2021/09/08 08:13:29;;;;;;;12.73;8.05;;;25.80;90.50;;;;;;5091027;28;20070;-50
2021/09/08 08:15:55;;;;;;;14.93;7.90;;;26.00;90.20;;;;;;5089243;28;20053;-57
2021/09/08 08:18:21;;;;;;;8.73;7.28;;;26.20;90.10;;;;;;5090165;28;20430;-50
2021/09/08 08:20:46;;;;;;;10.88;7.53;;;26.20;89.70;;;;;;5089022;28;20028;-50
2021/09/08 08:23:13;;;;;;;9.88;7.38;;;26.10;89.60;;;;;;5091284;28;20032;-50
2021/09/08 08:25:38;;;;;;;10.85;8.18;;;26.00;90.20;;;;;;5089105;28;20374;-51
2021/09/08 08:28:04;;;;;;;11.25;8.40;;;25.90;90.20;;;;;;5091217;28;20103;-51
2021/09/08 08:30:32;;;;;;;9.23;7.95;;;26.00;89.80;;;;;;5089780;28;20024;-50
2021/09/08 08:32:58;;;;;;;11.07;8.68;;;25.90;90.20;;;;;;5091393;28;20024;-49
2021/09/08 08:35:24;;;;;;;12.82;7.63;;;25.80;90.20;;;;;;5089973;28;20169;-50
2021/09/08 08:37:51;;;;;;;13.20;8.23;;;25.90;90.60;;;;;;5089941;28;20341;-50
2021/09/08 08:40:19;;;;;;;11.80;7.93;;;26.00;89.50;;;;;;5089371;28;20437;-50
2021/09/08 08:42:46;;;;;;;9.20;7.43;;;26.20;89.90;;;;;;5088628;28;20420;-50
2021/09/08 08:45:12;;;;;;;10.30;7.90;;;26.10;90.00;;;;;;5089713;28;20024;-50
2021/09/08 08:47:38;;;;;;;11.20;8.73;;;26.20;89.80;;;;;;5090240;28;20039;-50
2021/09/08 08:50:08;;;;;;;14.55;8.77;;;26.30;88.40;;;;;;5089369;28;20021;-49
2021/09/08 08:52:34;;;;;;;11.80;8.70;;;26.30;88.70;;;;;;5089002;28;20098;-50
2021/09/08 08:55:00;;;;;;;9.95;8.02;;;26.00;87.90;;;;;;5090357;28;20077;-48
2021/09/08 08:57:27;;;;;;;12.38;8.25;;;26.10;90.00;;;;;;5090204;28;20020;-49
2021/09/08 08:59:53;;;;;;;19.60;8.35;;;26.20;88.80;;;;;;5090547;28;20374;-51
2021/09/08 09:02:26;;;;;;;20.77;8.50;;;26.40;89.50;;;;;;5090205;28;20039;-48
2021/09/08 09:04:54;;;;;;;16.58;8.48;;;26.40;87.20;;;;;;5089842;28;20030;-61
2021/09/08 09:07:27;;;;;;;11.40;8.13;;;26.30;87.40;;;;;;5088908;28;20108;-62
2021/09/08 09:10:02;;;;;;;14.23;8.05;;;26.10;87.80;;;;;;5090126;28;20059;-73
2021/09/08 09:12:30;;;;;;;18.90;9.02;;;26.20;87.90;;;;;;5089556;28;20032;-73
2021/09/08 09:15:00;;;;;;;13.07;8.32;;;26.50;90.90;;;;;;5088628;28;20048;-72
2021/09/08 09:17:30;;;;;;;14.20;9.20;;;26.60;90.00;;;;;;5089217;28;20020;-72
2021/09/08 09:19:57;;;;;;;12.90;8.60;;;26.90;90.00;;;;;;5089856;28;20062;-62
2021/09/08 09:22:36;;;;;;;11.45;8.88;;;26.80;88.70;;;;;;5088515;28;20157;-65
2021/09/08 09:25:02;;;;;;;15.85;8.52;;;27.00;87.70;;;;;;5089621;28;20470;-65
2021/09/08 09:27:34;;;;;;;13.15;8.02;;;27.20;88.20;;;;;;5090283;28;20028;-63
2021/09/08 09:30:06;;;;;;;11.77;7.75;;;27.60;86.80;;;;;;5070694;28;20074;-65
2021/09/08 09:32:42;;;;;;;10.85;8.05;;;27.80;85.40;;;;;;5067548;28;20032;-74
2021/09/08 09:35:10;;;;;;;11.60;7.55;;;27.90;84.90;;;;;;5085492;28;20169;-62
2021/09/08 09:37:45;;;;;;;14.30;8.70;;;28.10;83.90;;;;;;5087351;28;20028;-72
2021/09/08 09:40:12;;;;;;;12.55;7.30;;;28.00;82.70;;;;;;5088790;28;20074;-62
2021/09/08 09:42:39;;;;;;;12.38;8.93;;;27.60;82.80;;;;;;5088414;28;20420;-62
2021/09/08 09:45:07;;;;;;;12.77;7.47;;;27.70;82.80;;;;;;5090491;28;20024;-62
2021/09/08 09:47:34;;;;;;;15.18;8.50;;;27.70;83.50;;;;;;5090862;28;20038;-62
2021/09/08 09:50:00;;;;;;;9.50;7.95;;;28.00;82.30;;;;;;5088545;28;20020;-62
2021/09/08 09:52:26;;;;;;;10.80;7.30;;;27.90;81.70;;;;;;5090191;28;20388;-61
2021/09/08 09:54:52;;;;;;;11.88;7.00;;;27.80;81.80;;;;;;5088325;28;20024;-62
2021/09/08 09:57:18;;;;;;;12.50;8.98;;;28.00;82.20;;;;;;5088817;28;20469;-61
2021/09/08 09:59:44;;;;;;;9.75;7.90;;;28.00;81.80;;;;;;5088320;28;20026;-63
2021/09/08 10:02:10;;;;;;;11.35;7.85;;;28.10;82.80;;;;;;5089692;28;20121;-62
2021/09/08 10:04:35;;;;;;;9.20;7.15;;;28.10;81.30;;;;;;5088655;28;20110;-62
2021/09/08 10:07:05;;;;;;;11.25;7.97;;;28.10;81.70;;;;;;5089137;28;20421;-62
2021/09/08 10:09:33;;;;;;;12.05;7.97;;;28.30;81.40;;;;;;5088566;28;20032;-62
2021/09/08 10:12:01;;;;;;;11.45;8.38;;;28.60;81.70;;;;;;5089424;28;20024;-63
2021/09/08 10:14:30;;;;;;;11.13;7.25;;;28.90;80.70;;;;;;5088188;28;20031;-62
2021/09/08 10:17:01;;;;;;;9.27;7.60;;;28.90;80.10;;;;;;5088071;28;20052;-62
2021/09/08 10:19:27;;;;;;;;;;;29.20;80.30;;;;;;5092956;28;20024;-63
2021/09/08 10:22:03;;;;;;;11.20;7.65;;;29.50;79.70;;;;;;5093111;28;20000;-63
2021/09/08 10:24:29;;;;;;;15.40;8.88;;;29.80;78.90;;;;;;5093448;28;20098;-63
2021/09/08 10:26:55;;;;;;;12.10;8.10;;;30.00;78.20;;;;;;5092812;28;20487;-62
2021/09/08 10:29:29;;;;;;;12.90;7.45;;;29.90;78.10;;;;;;5093260;28;20473;-62
2021/09/08 10:31:58;;;;;;;9.13;7.68;;;30.00;77.70;;;;;;5092509;28;20035;-62
2021/09/08 10:34:24;;;;;;;10.00;6.97;;;29.80;77.30;;;;;;5093051;28;20036;-62
2021/09/08 10:36:51;;;;;;;8.80;7.20;;;29.70;77.30;;;;;;5090953;28;20090;-63
2021/09/08 10:39:19;;;;;;;16.65;8.90;;;29.90;78.70;;;;;;5090984;28;20035;-62
2021/09/08 10:41:47;;;;;;;10.45;7.03;;;29.80;77.30;;;;;;5092063;28;20063;-62
2021/09/08 10:44:15;;;;;;;11.95;7.80;;;29.60;76.60;;;;;;5091636;28;20099;-62
2021/09/08 10:46:59;;;;;;;11.02;7.35;;;29.60;76.60;;;;;;5090971;28;20115;-63
2021/09/08 10:49:37;;;;;;;9.05;7.00;;;29.90;76.00;;;;;;5093286;28;20078;-62
2021/09/08 10:52:14;;;;;;;11.05;7.05;;;29.70;74.70;;;;;;5092076;28;20028;-62
2021/09/08 10:54:57;;;;;;;10.82;7.65;;;29.60;76.10;;;;;;5092621;28;20055;-76
2021/09/08 10:57:44;;;;;;;9.02;6.80;;;29.20;76.00;;;;;;5091590;28;20444;-62
2021/09/08 11:00:11;;;;;;;7.68;6.82;;;29.60;76.50;;;;;;5091354;28;20068;-62
2021/09/08 11:02:41;;;;;;;11.50;7.00;;;29.60;76.70;;;;;;5090909;28;20036;-61
2021/09/08 11:05:11;;;;;;;9.73;7.28;;;30.20;76.80;;;;;;5091213;28;20037;-61
2021/09/08 11:07:45;;;;;;;10.90;7.00;;;30.50;76.00;;;;;;5091089;28;20028;-62
2021/09/08 11:10:12;;;;;;;8.52;7.68;;;30.80;75.10;;;;;;5091045;28;20093;-66
2021/09/08 11:12:51;;;;;;;9.65;7.50;;;31.10;74.60;;;;;;5091267;28;20036;-62
2021/09/08 11:15:20;;;;;;;7.00;6.32;;;31.20;73.90;;;;;;5090912;28;20034;-62
2021/09/08 11:17:55;;;;;;;13.80;6.75;;;31.20;73.40;;;;;;5090411;28;20063;-62
2021/09/08 11:20:22;;;;;;;10.27;7.78;;;30.30;73.30;;;;;;5090714;28;20477;-62
2021/09/08 11:23:09;;;;;;;7.05;6.35;;;30.20;73.10;;;;;;5090061;28;20040;-62
2021/09/08 11:25:37;;;;;;;10.32;7.82;;;30.00;73.80;;;;;;5090524;28;20052;-62
2021/09/08 11:28:07;;;;;;;10.35;6.90;;;30.40;74.20;;;;;;5089391;28;20119;-62
2021/09/08 11:30:36;;;;;;;10.57;6.05;;;30.80;74.20;;;;;;5091060;28;20039;-63
2021/09/08 11:33:04;;;;;;;9.02;6.72;;;30.70;74.30;;;;;;5090241;28;20225;-62
2021/09/08 11:35:46;;;;;;;10.45;6.95;;;31.10;74.60;;;;;;5092299;28;20024;-62
2021/09/08 11:38:16;;;;;;;8.98;7.13;;;31.50;73.80;;;;;;5092019;28;20326;-62
2021/09/08 11:40:44;;;;;;;9.18;6.40;;;31.80;73.10;;;;;;5091783;28;20031;-62
2021/09/08 11:43:10;;;;;;;10.32;6.70;;;31.70;72.50;;;;;;5090893;28;20447;-62
2021/09/08 11:45:36;;;;;;;10.98;6.35;;;31.10;72.70;;;;;;5091562;28;20472;-62
2021/09/08 11:48:01;;;;;;;11.23;6.82;;;31.20;73.80;;;;;;5089258;28;20024;-62
2021/09/08 11:50:27;;;;;;;7.97;6.97;;;31.20;72.60;;;;;;5090634;28;20039;-61
2021/09/08 11:52:59;;;;;;;8.20;6.65;;;30.90;72.70;;;;;;5089410;28;20607;-62
2021/09/08 11:55:25;;;;;;;10.75;6.75;;;30.80;72.90;;;;;;5091220;28;20465;-61
2021/09/08 11:57:51;;;;;;;15.80;7.20;;;30.20;71.10;;;;;;5091135;28;20446;-62
2021/09/08 12:00:16;;;;;;;10.27;6.93;;;29.80;71.20;;;;;;5091569;28;20036;-61
2021/09/08 12:02:42;;;;;;;6.40;5.80;;;30.00;70.70;;;;;;5090879;28;20040;-62
2021/09/08 12:05:21;;;;;;;9.75;6.05;;;29.90;71.50;;;;;;5090589;28;20111;-62
2021/09/08 12:07:47;;;;;;;8.95;5.90;;;30.30;72.90;;;;;;5090872;28;20174;-62
2021/09/08 12:10:12;;;;;;;9.35;6.72;;;30.70;73.10;;;;;;5091387;28;20455;-62
2021/09/08 12:12:38;;;;;;;7.30;6.18;;;31.10;72.50;;;;;;5091794;28;20024;-62
2021/09/08 12:15:04;;;;;;;6.07;5.47;;;31.60;71.80;;;;;;5090848;28;20230;-62
2021/09/08 12:17:31;;;;;;;6.55;5.80;;;31.30;68.50;;;;;;5091178;28;20043;-62
2021/09/08 12:20:04;;;;;;;6.55;5.57;;;30.60;68.50;;;;;;5089486;28;20031;-62
2021/09/08 12:22:34;;;;;;;6.63;5.25;;;29.90;69.30;;;;;;5073588;28;20028;-62
2021/09/08 12:25:04;;;;;;;8.07;5.43;;;29.90;70.10;;;;;;5089215;28;20418;-62
2021/09/08 12:27:40;;;;;;;9.57;5.83;;;30.40;69.80;;;;;;5091559;28;20032;-62
2021/09/08 12:30:14;;;;;;;13.38;5.07;;;30.10;69.30;;;;;;5090902;28;20314;-62
2021/09/08 12:32:58;;;;;;;8.55;6.25;;;30.40;69.90;;;;;;5090720;28;20029;-62
2021/09/08 12:35:36;;;;;;;6.45;5.85;;;31.10;69.20;;;;;;5089851;28;20028;-62
2021/09/08 12:38:41;;;;;;;9.40;5.70;;;31.30;68.20;;;;;;5090735;28;20047;-62